Terminal Aerodrome Forecast
Issued by NWS

Home | Current Version | Previous Version | Text Only | Print | Product List | Glossary On
Versions: 1 2 3 4 5 6 7 8 9 10 11 12 13
000
FTUS46 KSGX 041507 AAA
TAFONT
TAF AMD
KONT 041507Z 0415/0518 VRB05KT 5SM BR BKN010
     FM041600 VRB04KT 6SM HZ FEW020
     FM042000 25011G18KT P6SM SCT200
     FM050400 26008KT P6SM SCT030 SCT200
     FM050900 VRB05KT P6SM BKN025=

USA.gov is the U.S. government's official web portal to all federal, state and local government web resources and services.